Time;durP1;ratioP1;P1;durP2;ratioP2;P2;SDS_P1;SDS_P2;PMS_P1;PMS_P2;Temp;Humidity;BMP_temperature;BMP_pressure;BME280_temperature;BME280_humidity;BME280_pressure;Samples;Min_cycle;Max_cycle;Signal;HPM_P1;HPM_P2
2022/04/07 00:01:19;;;;;;;;;;;9.00;86.60;;;;;;5152859;27;19962;-73
2022/04/07 00:03:44;;;;;;;;;;;9.00;86.50;;;;;;5152947;27;19914;-74
2022/04/07 00:06:10;;;;;;;;;;;9.00;86.50;;;;;;5152877;27;19936;-73
2022/04/07 00:08:36;;;;;;;;;;;9.00;86.20;;;;;;5152971;27;19925;-73
2022/04/07 00:11:02;;;;;;;;;;;9.00;86.20;;;;;;5152601;27;19950;-73
2022/04/07 00:13:27;;;;;;;;;;;8.90;86.30;;;;;;5152849;27;20013;-73
2022/04/07 00:15:53;;;;;;;;;;;8.90;86.40;;;;;;5134038;27;19922;-73
2022/04/07 00:18:19;;;;;;;;;;;8.90;86.40;;;;;;5152575;27;19915;-73
2022/04/07 00:20:45;;;;;;;;;;;8.90;86.20;;;;;;5151219;27;19918;-73
2022/04/07 00:23:10;;;;;;;;;;;8.90;86.30;;;;;;5152380;27;19911;-73
2022/04/07 00:25:36;;;;;;;;;;;8.90;86.30;;;;;;5152549;27;20132;-73
2022/04/07 00:28:01;;;;;;;;;;;8.90;86.50;;;;;;5152468;27;19918;-73
2022/04/07 00:30:27;;;;;;;;;;;8.80;86.50;;;;;;5152226;27;20013;-73
2022/04/07 00:32:53;;;;;;;;;;;8.90;86.60;;;;;;5152072;27;19930;-74
2022/04/07 00:35:18;;;;;;;;;;;8.80;86.80;;;;;;5152406;27;19911;-73
2022/04/07 00:37:44;;;;;;;;;;;8.80;86.80;;;;;;5152237;27;19911;-74
2022/04/07 00:40:10;;;;;;;;;;;8.80;86.90;;;;;;5133666;27;19916;-73
2022/04/07 00:42:49;;;;;;;;;;;8.80;87.00;;;;;;5152158;27;19998;-73
2022/04/07 00:45:16;;;;;;;;;;;8.80;87.10;;;;;;5152382;27;19908;-73
2022/04/07 00:47:42;;;;;;;;;;;8.80;87.10;;;;;;5152016;27;20005;-73
2022/04/07 00:50:08;;;;;;;;;;;8.80;87.10;;;;;;5151966;27;19965;-74
2022/04/07 00:52:34;;;;;;;;;;;8.80;87.20;;;;;;5133218;27;20373;-74
2022/04/07 00:55:01;;;;;;;;;;;8.80;87.20;;;;;;5151997;27;19919;-73
2022/04/07 00:57:27;;;;;;;;;;;8.80;87.40;;;;;;5151878;27;19911;-73
2022/04/07 00:59:53;;;;;;;;;;;8.80;87.50;;;;;;5151839;27;19911;-73
2022/04/07 01:02:19;;;;;;;;;;;8.80;87.60;;;;;;5133079;27;19915;-73
2022/04/07 01:04:45;;;;;;;;;;;8.80;87.50;;;;;;5151648;27;19911;-73
2022/04/07 01:07:10;;;;;;;;;;;8.80;87.30;;;;;;5151645;27;19959;-73
2022/04/07 01:09:37;;;;;;;;;;;8.80;87.20;;;;;;5151493;27;19922;-73
2022/04/07 01:12:03;;;;;;;;;;;8.80;87.30;;;;;;5132951;27;19921;-73
2022/04/07 01:14:29;;;;;;;;;;;8.80;87.20;;;;;;5133277;27;19915;-73
2022/04/07 01:16:54;;;;;;;;;;;8.80;87.30;;;;;;5151465;27;20391;-73
2022/04/07 01:19:20;;;;;;;;;;;8.80;87.20;;;;;;5151445;27;19911;-73
2022/04/07 01:21:46;;;;;;;;;;;8.80;87.30;;;;;;5151260;27;19954;-73
2022/04/07 01:24:12;;;;;;;;;;;8.90;87.50;;;;;;5151422;27;19912;-73
2022/04/07 01:26:39;;;;;;;;;;;8.80;87.40;;;;;;5151288;27;19964;-73
2022/04/07 01:29:05;;;;;;;;;;;8.80;87.40;;;;;;5151213;27;19918;-73
2022/04/07 01:31:32;;;;;;;;;;;8.80;87.50;;;;;;5150619;27;19915;-73
2022/04/07 01:33:59;;;;;;;;;;;8.80;87.50;;;;;;5150944;27;19964;-73
2022/04/07 01:36:26;;;;;;;;;;;8.80;87.60;;;;;;5132338;27;19908;-73
2022/04/07 01:38:52;;;;;;;;;;;8.80;87.60;;;;;;5151041;27;20422;-73
2022/04/07 01:41:18;;;;;;;;;;;8.70;87.60;;;;;;5150880;27;20010;-73
2022/04/07 01:43:45;;;;;;;;;;;8.80;87.50;;;;;;5150962;27;19956;-73
2022/04/07 01:46:12;;;;;;;;;;;8.80;87.30;;;;;;5150730;27;19911;-74
2022/04/07 01:48:38;;;;;;;;;;;8.80;87.00;;;;;;5132192;27;19923;-73
2022/04/07 01:51:04;;;;;;;;;;;8.80;86.90;;;;;;5150592;27;19921;-73
2022/04/07 01:53:29;;;;;;;;;;;8.80;86.70;;;;;;5132205;27;20002;-73
2022/04/07 01:55:55;;;;;;;;;;;8.80;86.60;;;;;;5150789;27;19911;-73
2022/04/07 01:58:22;;;;;;;;;;;8.80;86.60;;;;;;5150667;27;19907;-73
2022/04/07 02:00:47;;;;;;;;;;;8.80;86.50;;;;;;5151013;27;19907;-73
2022/04/07 02:03:13;;;;;;;;;;;8.80;86.50;;;;;;5150614;27;19959;-73
2022/04/07 02:05:38;;;;;;;;;;;8.80;86.50;;;;;;5150409;27;19919;-73
2022/04/07 02:08:04;;;;;;;;;;;8.80;86.50;;;;;;5131884;27;19911;-73
2022/04/07 02:10:32;;;;;;;;;;;8.70;86.40;;;;;;5150383;27;19922;-73
2022/04/07 02:12:58;;;;;;;;;;;8.70;86.40;;;;;;5150436;27;19963;-73
2022/04/07 02:15:24;;;;;;;;;;;8.70;86.40;;;;;;5150336;27;20170;-73
2022/04/07 02:17:50;;;;;;;;;;;8.70;86.50;;;;;;5131899;27;19941;-73
2022/04/07 02:20:16;;;;;;;;;;;8.70;86.40;;;;;;5150166;27;19907;-73
2022/04/07 02:22:41;;;;;;;;;;;8.70;86.50;;;;;;5150173;27;20329;-73
2022/04/07 02:25:08;;;;;;;;;;;8.70;86.50;;;;;;5150205;27;20357;-73
2022/04/07 02:27:35;;;;;;;;;;;8.70;86.60;;;;;;5150129;27;19907;-73
2022/04/07 02:30:01;;;;;;;;;;;8.70;86.70;;;;;;5149992;27;19918;-73
2022/04/07 02:32:28;;;;;;;;;;;8.60;86.80;;;;;;5150165;27;20013;-73
2022/04/07 02:34:54;;;;;;;;;;;8.60;87.00;;;;;;5150034;27;19911;-73
2022/04/07 02:37:19;;;;;;;;;;;8.50;87.30;;;;;;5149950;27;19994;-73
2022/04/07 02:39:45;;;;;;;;;;;8.50;87.50;;;;;;5150102;27;19974;-73
2022/04/07 02:42:10;;;;;;;;;;;8.50;87.80;;;;;;5149837;27;20353;-73
2022/04/07 02:44:36;;;;;;;;;;;8.40;88.10;;;;;;5149174;27;19918;-73
2022/04/07 02:47:01;;;;;;;;;;;8.40;88.40;;;;;;5149957;27;19911;-73
2022/04/07 02:49:27;;;;;;;;;;;8.40;88.80;;;;;;5149734;27;20384;-73
2022/04/07 02:51:53;;;;;;;;;;;8.30;89.20;;;;;;5149794;27;19911;-73
2022/04/07 02:54:18;;;;;;;;;;;8.20;89.70;;;;;;5149705;27;20373;-73
2022/04/07 02:56:44;;;;;;;;;;;8.10;90.00;;;;;;5149216;27;19911;-73
2022/04/07 02:59:09;;;;;;;;;;;8.10;90.20;;;;;;5131151;27;19915;-73
2022/04/07 03:01:35;;;;;;;;;;;8.10;90.30;;;;;;5149697;27;19911;-73
2022/04/07 03:04:00;;;;;;;;;;;8.00;90.40;;;;;;5149689;27;19911;-73
2022/04/07 03:06:26;;;;;;;;;;;8.00;90.50;;;;;;5149687;27;19912;-73
2022/04/07 03:08:52;;;;;;;;;;;8.00;90.50;;;;;;5149626;27;19946;-73
2022/04/07 03:11:17;;;;;;;;;;;8.10;90.50;;;;;;5149516;27;19911;-73
2022/04/07 03:13:43;;;;;;;;;;;8.10;90.50;;;;;;5149505;27;19911;-73
2022/04/07 03:16:09;;;;;;;;;;;8.10;90.60;;;;;;5149532;27;19969;-73
2022/04/07 03:18:34;;;;;;;;;;;8.00;90.70;;;;;;5149485;27;19911;-73
2022/04/07 03:21:00;;;;;;;;;;;8.00;90.70;;;;;;5131152;27;19911;-73
2022/04/07 03:23:25;;;;;;;;;;;8.10;90.80;;;;;;5149523;27;19916;-73
2022/04/07 03:25:51;;;;;;;;;;;8.10;90.90;;;;;;5149470;27;19911;-73
2022/04/07 03:28:17;;;;;;;;;;;8.10;90.90;;;;;;5149313;27;20015;-73
2022/04/07 03:30:42;;;;;;;;;;;8.10;90.80;;;;;;5149476;27;19911;-73
2022/04/07 03:33:08;;;;;;;;;;;8.00;90.90;;;;;;5149083;27;19956;-73
2022/04/07 03:35:34;;;;;;;;;;;7.90;91.00;;;;;;5149354;27;19933;-73
2022/04/07 03:38:00;;;;;;;;;;;7.90;91.20;;;;;;5149404;27;19915;-73
2022/04/07 03:40:26;;;;;;;;;;;7.80;91.30;;;;;;5149314;27;20253;-73
2022/04/07 03:42:52;;;;;;;;;;;7.80;91.50;;;;;;5149232;27;19907;-73
2022/04/07 03:45:18;;;;;;;;;;;7.80;91.60;;;;;;5149350;27;19907;-73
2022/04/07 03:47:43;;;;;;;;;;;7.80;91.70;;;;;;5149147;27;20266;-74
2022/04/07 03:50:09;;;;;;;;;;;7.80;91.80;;;;;;5149100;27;19911;-73
2022/04/07 03:52:34;;;;;;;;;;;7.70;91.90;;;;;;5149139;27;19927;-73
2022/04/07 03:55:00;;;;;;;;;;;7.70;92.10;;;;;;5150668;27;20326;-73
2022/04/07 03:57:25;;;;;;;;;;;7.60;92.20;;;;;;5152907;27;19997;-73
2022/04/07 03:59:52;;;;;;;;;;;7.60;92.30;;;;;;5153027;27;19918;-73
2022/04/07 04:02:17;;;;;;;;;;;7.60;92.30;;;;;;5134128;27;20394;-73
2022/04/07 04:04:43;;;;;;;;;;;7.60;92.30;;;;;;5152706;27;19997;-73
2022/04/07 04:07:09;;;;;;;;;;;7.60;92.30;;;;;;5152855;27;20014;-73
2022/04/07 04:09:34;;;;;;;;;;;7.60;92.30;;;;;;5152754;27;20377;-73
2022/04/07 04:12:00;;;;;;;;;;;7.70;92.20;;;;;;5152704;27;20391;-73
2022/04/07 04:14:25;;;;;;;;;;;7.70;92.10;;;;;;5152761;27;20005;-73
2022/04/07 04:16:51;;;;;;;;;;;7.70;92.10;;;;;;5152725;27;19998;-73
2022/04/07 04:19:16;;;;;;;;;;;7.80;92.00;;;;;;5152625;27;19955;-73
2022/04/07 04:21:42;;;;;;;;;;;7.80;91.90;;;;;;5152629;27;20100;-73
2022/04/07 04:24:10;;;;;;;;;;;7.80;91.70;;;;;;5152778;27;19907;-73
2022/04/07 04:26:36;;;;;;;;;;;7.90;91.60;;;;;;5133994;27;19963;-73
2022/04/07 04:29:01;;;;;;;;;;;8.00;91.60;;;;;;5116730;27;20435;-73
2022/04/07 04:31:27;;;;;;;;;;;8.00;91.50;;;;;;5152314;27;19972;-73
2022/04/07 04:33:52;;;;;;;;;;;8.00;91.40;;;;;;5152094;27;19923;-73
2022/04/07 04:36:18;;;;;;;;;;;8.00;91.30;;;;;;5152307;27;19952;-73
2022/04/07 04:38:44;;;;;;;;;;;8.00;91.20;;;;;;5152285;27;20261;-73
2022/04/07 04:41:09;;;;;;;;;;;8.10;91.20;;;;;;5152264;27;19918;-74
2022/04/07 04:43:35;;;;;;;;;;;8.10;91.10;;;;;;5152205;27;19919;-73
2022/04/07 04:46:00;;;;;;;;;;;8.10;91.00;;;;;;5152170;27;20308;-73
2022/04/07 04:48:26;;;;;;;;;;;8.10;90.90;;;;;;5151963;27;19919;-73
2022/04/07 04:50:52;;;;;;;;;;;8.10;90.80;;;;;;5151766;27;19907;-73
2022/04/07 04:53:17;;;;;;;;;;;8.10;90.80;;;;;;5151980;27;19917;-73
2022/04/07 04:55:43;;;;;;;;;;;8.10;90.80;;;;;;5152188;27;20009;-73
2022/04/07 04:58:08;;;;;;;;;;;8.10;90.70;;;;;;5151827;27;19918;-73
2022/04/07 05:00:34;;;;;;;;;;;8.10;90.70;;;;;;5151867;27;19919;-73
2022/04/07 05:03:00;;;;;;;;;;;8.10;90.70;;;;;;5151691;27;19934;-73
2022/04/07 05:05:25;;;;;;;;;;;8.10;90.60;;;;;;5151582;27;20016;-73
2022/04/07 05:07:51;;;;;;;;;;;8.10;90.60;;;;;;5150880;27;19915;-73
2022/04/07 05:10:18;;;;;;;;;;;8.10;90.60;;;;;;5151513;27;20314;-73
2022/04/07 05:12:44;;;;;;;;;;;8.10;90.60;;;;;;5151431;27;19911;-73
2022/04/07 05:15:10;;;;;;;;;;;8.10;90.50;;;;;;5151552;27;19914;-73
2022/04/07 05:17:35;;;;;;;;;;;8.20;90.50;;;;;;5132671;27;19917;-74
2022/04/07 05:20:01;;;;;;;;;;;8.20;90.40;;;;;;5151442;27;19994;-73
2022/04/07 05:22:26;;;;;;;;;;;8.20;90.40;;;;;;5132821;27;20003;-73
2022/04/07 05:24:52;;;;;;;;;;;8.20;90.40;;;;;;5132789;27;19911;-73
2022/04/07 05:27:18;;;;;;;;;;;8.20;90.40;;;;;;5151199;27;19954;-73
2022/04/07 05:29:43;;;;;;;;;;;8.10;90.30;;;;;;5150842;27;19927;-73
2022/04/07 05:32:09;;;;;;;;;;;8.20;90.30;;;;;;5131854;27;19915;-73
2022/04/07 05:34:34;;;;;;;;;;;8.20;90.40;;;;;;5151076;27;19914;-73
2022/04/07 05:37:00;;;;;;;;;;;8.20;90.30;;;;;;5151125;27;19936;-73
2022/04/07 05:39:26;;;;;;;;;;;8.20;90.20;;;;;;5132399;27;19913;-73
2022/04/07 05:41:51;;;;;;;;;;;8.20;90.10;;;;;;5150772;27;20229;-73
2022/04/07 05:44:17;;;;;;;;;;;8.20;90.10;;;;;;5150835;27;19911;-73
2022/04/07 05:46:43;;;;;;;;;;;8.20;90.10;;;;;;5150778;27;20013;-73
2022/04/07 05:49:10;;;;;;;;;;;8.20;90.00;;;;;;5150821;27;19976;-73
2022/04/07 05:51:36;;;;;;;;;;;8.20;90.00;;;;;;5150666;27;20416;-73
2022/04/07 05:54:02;;;;;;;;;;;8.20;90.00;;;;;;5132296;27;19918;-73
2022/04/07 05:56:27;;;;;;;;;;;8.30;89.90;;;;;;5150652;27;19916;-73
2022/04/07 05:58:53;;;;;;;;;;;8.30;89.70;;;;;;5150300;27;20315;-73
2022/04/07 06:01:18;;;;;;;;;;;8.30;89.60;;;;;;5150268;27;19957;-73
2022/04/07 06:03:44;;;;;;;;;;;8.20;89.60;;;;;;5150470;27;20293;-72
2022/04/07 06:06:09;;;;;;;;;;;8.20;89.70;;;;;;5131649;27;19911;-73
2022/04/07 06:08:35;;;;;;;;;;;8.20;89.60;;;;;;5150263;27;19915;-73
2022/04/07 06:11:00;;;;;;;;;;;8.30;89.60;;;;;;5150814;27;19955;-73
2022/04/07 06:13:26;;;;;;;;;;;8.20;89.40;;;;;;5150393;27;19917;-73
2022/04/07 06:15:52;;;;;;;;;;;8.20;89.20;;;;;;5149912;27;19918;-73
2022/04/07 06:18:17;;;;;;;;;;;8.20;89.00;;;;;;5150239;27;20353;-73
2022/04/07 06:20:45;;;;;;;;;;;8.20;89.00;;;;;;5149953;27;20010;-73
2022/04/07 06:23:10;;;;;;;;;;;8.10;88.90;;;;;;5149899;27;19918;-73
2022/04/07 06:25:36;;;;;;;;;;;8.00;89.00;;;;;;5150299;27;20214;-74
2022/04/07 06:28:04;;;;;;;;;;;8.00;89.00;;;;;;5149572;27;20270;-73
2022/04/07 06:30:29;;;;;;;;;;;7.90;89.70;;;;;;5149513;27;19918;-73
2022/04/07 06:32:56;;;;;;;;;;;8.00;89.70;;;;;;5149496;27;20303;-73
2022/04/07 06:35:22;;;;;;;;;;;8.10;89.70;;;;;;5149407;27;19920;-74
2022/04/07 06:37:54;;;;;;;;;;;8.20;89.70;;;;;;5131066;27;20296;-73
2022/04/07 06:40:20;;;;;;;;;;;8.20;89.70;;;;;;5149670;27;19915;-73
2022/04/07 06:42:46;;;;;;;;;;;8.30;89.70;;;;;;5149664;27;19954;-73
2022/04/07 06:45:12;;;;;;;;;;;8.40;89.40;;;;;;5149971;27;19919;-73
2022/04/07 06:47:41;;;;;;;;;;;8.50;89.20;;;;;;5149677;27;19915;-73
2022/04/07 06:50:10;;;;;;;;;;;8.50;89.10;;;;;;5149548;27;19950;-73
2022/04/07 06:52:36;;;;;;;;;;;8.40;89.00;;;;;;5130690;27;19911;-74
2022/04/07 06:55:02;;;;;;;;;;;8.50;89.10;;;;;;5130990;27;19934;-73
2022/04/07 06:57:27;;;;;;;;;;;8.50;89.00;;;;;;5149012;27;19918;-73
2022/04/07 06:59:53;;;;;;;;;;;8.50;88.70;;;;;;5149286;27;19918;-73
2022/04/07 07:02:18;;;;;;;;;;;8.50;88.90;;;;;;5149543;27;19918;-73
2022/04/07 07:04:44;;;;;;;;;;;8.60;88.90;;;;;;5149522;27;19908;-72
2022/04/07 07:07:11;;;;;;;;;;;8.60;88.70;;;;;;5149225;27;19912;-73
2022/04/07 07:09:37;;;;;;;;;;;8.70;88.50;;;;;;5149442;27;19915;-73
2022/04/07 07:12:03;;;;;;;;;;;8.70;88.50;;;;;;5149129;27;19918;-73
2022/04/07 07:14:28;;;;;;;;;;;8.70;88.20;;;;;;5149242;27;19927;-71
2022/04/07 07:16:54;;;;;;;;;;;8.80;88.20;;;;;;5130309;27;19914;-74
2022/04/07 07:19:26;;;;;;;;;;;8.80;88.10;;;;;;5149129;27;19957;-73
2022/04/07 07:21:52;;;;;;;;;;;8.90;87.90;;;;;;5148143;27;20376;-73
2022/04/07 07:24:17;;;;;;;;;;;8.90;87.90;;;;;;5148694;27;19943;-73
2022/04/07 07:26:43;;;;;;;;;;;8.90;87.80;;;;;;5148702;27;19911;-73
2022/04/07 07:29:09;;;;;;;;;;;8.90;87.60;;;;;;5148510;27;19919;-73
2022/04/07 07:31:36;;;;;;;;;;;8.90;87.50;;;;;;5154093;27;19914;-76
2022/04/07 07:34:03;;;;;;;;;;;8.90;87.60;;;;;;5134306;27;19923;-74
2022/04/07 07:36:29;;;;;;;;;;;8.90;87.70;;;;;;5152449;27;19915;-73
2022/04/07 07:38:55;;;;;;;;;;;9.00;87.60;;;;;;5152473;27;20310;-71
2022/04/07 07:41:20;;;;;;;;;;;9.00;87.80;;;;;;5152579;27;19907;-72
2022/04/07 07:43:46;;;;;;;;;;;9.20;87.70;;;;;;5152171;27;19912;-72
2022/04/07 07:46:11;;;;;;;;;;;9.20;87.20;;;;;;5152660;27;19918;-72
2022/04/07 07:48:37;;;;;;;;;;;9.30;86.90;;;;;;5152401;27;20383;-72
2022/04/07 07:51:02;;;;;;;;;;;9.30;86.60;;;;;;5152539;27;19964;-73
2022/04/07 07:53:28;;;;;;;;;;;9.30;86.60;;;;;;5152084;27;19955;-73
2022/04/07 07:55:54;;;;;;;;;;;9.40;86.70;;;;;;5133074;27;19923;-73
2022/04/07 07:58:22;;;;;;;;;;;9.50;86.80;;;;;;5152093;27;19914;-72
2022/04/07 08:00:47;;;;;;;;;;;9.80;86.90;;;;;;5151876;27;19919;-73
2022/04/07 08:03:13;;;;;;;;;;;9.90;86.50;;;;;;5152073;27;19925;-73
2022/04/07 08:05:38;;;;;;;;;;;10.10;86.30;;;;;;5152290;27;19919;-73
2022/04/07 08:08:07;;;;;;;;;;;10.20;86.00;;;;;;5152293;27;19955;-73
2022/04/07 08:10:33;;;;;;;;;;;10.20;85.80;;;;;;5153407;27;19923;-72
2022/04/07 08:12:59;;;;;;;;;;;10.20;85.60;;;;;;5152473;27;19955;-73
2022/04/07 08:15:24;;;;;;;;;;;10.30;85.30;;;;;;5152169;27;19918;-72
2022/04/07 08:17:50;;;;;;;;;;;10.20;85.50;;;;;;5152919;27;19959;-73
2022/04/07 08:20:17;;;;;;;;;;;10.30;84.70;;;;;;5152766;27;20253;-73
2022/04/07 08:22:43;;;;;;;;;;;10.30;84.60;;;;;;5152990;27;19914;-73
2022/04/07 08:25:09;;;;;;;;;;;10.30;85.30;;;;;;5152577;27;20309;-73
2022/04/07 08:27:35;;;;;;;;;;;10.50;84.80;;;;;;5152004;27;19907;-73
2022/04/07 08:30:01;;;;;;;;;;;10.70;84.50;;;;;;5151695;27;19915;-73
2022/04/07 08:32:26;;;;;;;;;;;11.10;84.90;;;;;;5133588;27;19915;-73
2022/04/07 08:34:52;;;;;;;;;;;11.40;83.80;;;;;;5152035;27;19911;-73
2022/04/07 08:37:18;;;;;;;;;;;11.40;82.50;;;;;;5151673;27;20129;-73
2022/04/07 08:39:43;;;;;;;;;;;11.20;82.20;;;;;;5151942;27;19915;-73
2022/04/07 08:42:09;;;;;;;;;;;11.20;82.90;;;;;;5132468;27;19918;-73
2022/04/07 08:44:34;;;;;;;;;;;11.20;82.70;;;;;;5133330;27;20407;-72
2022/04/07 08:47:00;;;;;;;;;;;11.20;82.30;;;;;;5151955;27;19990;-72
2022/04/07 08:49:30;;;;;;;;;;;11.20;82.20;;;;;;5151643;27;20418;-72
2022/04/07 08:51:56;;;;;;;;;;;11.20;82.80;;;;;;5149621;27;19915;-72
2022/04/07 08:54:22;;;;;;;;;;;11.50;82.60;;;;;;5151573;27;19951;-73
2022/04/07 08:56:48;;;;;;;;;;;11.70;82.10;;;;;;5115657;27;19926;-72
2022/04/07 08:59:14;;;;;;;;;;;11.90;81.50;;;;;;5152152;27;20291;-72
2022/04/07 09:01:39;;;;;;;;;;;11.90;80.90;;;;;;5151634;27;19971;-73
2022/04/07 09:04:05;;;;;;;;;;;12.00;80.80;;;;;;5151656;27;19914;-72
2022/04/07 09:06:34;;;;;;;;;;;11.90;80.20;;;;;;5133048;27;19918;-72
2022/04/07 09:09:11;;;;;;;;;;;11.90;80.50;;;;;;5151558;27;20361;-72
2022/04/07 09:11:37;;;;;;;;;;;11.90;80.70;;;;;;5149196;27;19907;-66
2022/04/07 09:14:02;;;;;;;;;;;12.10;79.60;;;;;;5151486;27;19925;-73
2022/04/07 09:16:28;;;;;;;;;;;12.30;79.40;;;;;;5150891;27;19983;-73
2022/04/07 09:18:54;;;;;;;;;;;12.50;79.40;;;;;;5151127;27;19953;-72
2022/04/07 09:21:24;;;;;;;;;;;12.90;78.50;;;;;;5150592;27;20001;-72
2022/04/07 09:23:52;;;;;;;;;;;13.50;78.00;;;;;;5151213;27;19911;-74
2022/04/07 09:26:18;;;;;;;;;;;14.00;76.10;;;;;;5150840;27;19907;-71
2022/04/07 09:28:43;;;;;;;;;;;14.80;76.70;;;;;;5150702;27;20499;-72
2022/04/07 09:31:13;;;;;;;;;;;14.80;74.80;;;;;;5150415;27;19919;-72
2022/04/07 09:33:39;;;;;;;;;;;14.10;74.30;;;;;;5151151;27;19926;-72
2022/04/07 09:36:07;;;;;;;;;;;14.00;76.70;;;;;;5151154;27;20257;-72
2022/04/07 09:38:36;;;;;;;;;;;14.00;75.10;;;;;;5151414;27;19951;-73
2022/04/07 09:41:03;;;;;;;;;;;13.70;74.70;;;;;;5151547;27;19911;-73
2022/04/07 09:43:28;;;;;;;;;;;13.40;74.00;;;;;;5151617;27;19915;-73
2022/04/07 09:45:55;;;;;;;;;;;13.60;75.00;;;;;;5150918;27;19935;-73
2022/04/07 09:48:22;;;;;;;;;;;13.90;75.00;;;;;;5150950;27;19911;-73
2022/04/07 09:51:03;;;;;;;;;;;14.70;76.00;;;;;;5150803;27;20015;-73
2022/04/07 09:53:33;;;;;;;;;;;15.50;75.00;;;;;;5131763;27;19915;-73
2022/04/07 09:55:59;;;;;;;;;;;16.50;73.40;;;;;;5130456;27;19919;-73
2022/04/07 09:58:25;;;;;;;;;;;17.40;71.80;;;;;;5150612;27;20009;-73
2022/04/07 10:00:51;;;;;;;;;;;18.20;71.20;;;;;;5147551;27;20106;-73
2022/04/07 10:03:20;;;;;;;;;;;19.00;71.20;;;;;;5131657;27;19953;-73
2022/04/07 10:05:47;;;;;;;;;;;19.70;69.00;;;;;;5150568;27;19911;-74
2022/04/07 10:08:15;;;;;;;;;;;20.10;66.40;;;;;;5147634;27;20019;-73
2022/04/07 10:10:41;;;;;;;;;;;20.20;65.40;;;;;;5150036;27;19962;-73
2022/04/07 10:13:08;;;;;;;;;;;20.50;64.80;;;;;;5148990;27;20254;-72
2022/04/07 10:15:35;;;;;;;;;;;19.60;62.80;;;;;;5148628;27;19915;-72
2022/04/07 10:18:04;;;;;;;;;;;18.40;62.60;;;;;;5148816;27;19911;-72
2022/04/07 10:20:33;;;;;;;;;;;16.90;62.50;;;;;;5146643;27;19915;-73
2022/04/07 10:23:25;;;;;;;;;;;15.50;63.10;;;;;;5145275;27;20015;-72
2022/04/07 10:25:51;;;;;;;;;;;14.80;64.80;;;;;;5141611;27;19907;-72
2022/04/07 10:28:19;;;;;;;;;;;14.50;65.90;;;;;;5149741;27;19918;-72
2022/04/07 10:30:48;;;;;;;;;;;14.80;67.30;;;;;;5149899;27;19918;-72
2022/04/07 10:33:33;;;;;;;;;;;15.40;66.10;;;;;;5130805;27;19926;-73
2022/04/07 10:35:59;;;;;;;;;;;16.10;66.20;;;;;;5149222;27;20010;-72
2022/04/07 10:38:41;;;;;;;;;;;17.20;66.00;;;;;;5149985;27;19999;-73
2022/04/07 10:41:07;;;;;;;;;;;18.20;65.70;;;;;;5146378;27;19911;-73
2022/04/07 10:43:38;;;;;;;;;;;19.10;64.00;;;;;;5149574;27;19907;-73
2022/04/07 10:46:06;;;;;;;;;;;19.10;62.40;;;;;;5149668;27;19911;-73
2022/04/07 10:48:33;;;;;;;;;;;18.30;61.10;;;;;;5149860;27;19911;-72
2022/04/07 10:51:07;;;;;;;;;;;17.40;61.00;;;;;;5130692;27;19922;-73
2022/04/07 10:53:37;;;;;;;;;;;16.40;60.80;;;;;;5145182;27;19952;-72
2022/04/07 10:56:21;;;;;;;;;;;15.70;62.50;;;;;;5149353;27;19925;-73
2022/04/07 10:58:57;;;;;;;;;;;15.50;63.20;;;;;;5149514;27;20284;-72
2022/04/07 11:01:31;;;;;;;;;;;15.20;63.20;;;;;;5147771;27;19919;-73
2022/04/07 11:04:15;;;;;;;;;;;15.00;63.80;;;;;;5146155;27;19907;-72
2022/04/07 11:07:01;;;;;;;;;;;15.10;65.10;;;;;;5147441;27;20001;-73
2022/04/07 11:09:39;;;;;;;;;;;16.40;67.40;;;;;;5147609;27;19920;-73
2022/04/07 11:12:12;;;;;;;;;;;17.30;64.80;;;;;;5129340;28;20137;-72
2022/04/07 11:14:38;;;;;;;;;;;17.80;65.00;;;;;;5129139;28;19998;-72
2022/04/07 11:17:08;;;;;;;;;;;17.90;63.50;;;;;;5144812;27;20002;-73
2022/04/07 11:19:47;;;;;;;;;;;18.00;63.80;;;;;;5149276;27;19926;-73
2022/04/07 11:22:12;;;;;;;;;;;18.70;64.90;;;;;;5149512;27;20001;-73
2022/04/07 11:24:51;;;;;;;;;;;19.50;63.70;;;;;;5148817;27;19994;-73
2022/04/07 11:27:39;;;;;;;;;;;19.50;62.30;;;;;;5130354;27;19956;-73
2022/04/07 11:30:12;;;;;;;;;;;18.80;61.20;;;;;;5110420;27;20246;-73
2022/04/07 11:32:41;;;;;;;;;;;17.80;60.70;;;;;;5126770;28;20311;-72
2022/04/07 11:35:13;;;;;;;;;;;17.10;62.10;;;;;;5127370;28;19911;-72
2022/04/07 11:37:40;;;;;;;;;;;17.40;63.90;;;;;;5127940;28;19968;-72
2022/04/07 11:40:06;;;;;;;;;;;18.20;63.80;;;;;;5128217;28;20254;-72
2022/04/07 11:42:32;;;;;;;;;;;18.70;63.20;;;;;;5128411;28;19918;-72
2022/04/07 11:44:59;;;;;;;;;;;18.70;61.40;;;;;;5128043;28;19912;-72
2022/04/07 11:47:31;;;;;;;;;;;19.10;62.10;;;;;;5128199;28;19964;-72
2022/04/07 11:49:56;;;;;;;;;;;19.10;59.90;;;;;;5128846;28;19912;-72
2022/04/07 11:52:32;;;;;;;;;;;18.30;58.80;;;;;;5128061;28;19911;-72
2022/04/07 11:54:58;;;;;;;;;;;17.40;59.60;;;;;;5128510;28;19949;-72
2022/04/07 11:57:25;;;;;;;;;;;16.40;60.40;;;;;;5126792;28;20002;-72
2022/04/07 11:59:55;;;;;;;;;;;15.60;61.30;;;;;;5128091;28;20503;-73
2022/04/07 12:02:21;;;;;;;;;;;15.10;62.00;;;;;;5124950;28;19911;-73
2022/04/07 12:04:52;;;;;;;;;;;14.80;62.70;;;;;;5128273;28;20388;-72
2022/04/07 12:07:18;;;;;;;;;;;15.30;64.80;;;;;;5128216;28;19907;-72
2022/04/07 12:09:44;;;;;;;;;;;16.40;65.60;;;;;;5128519;28;20001;-72
2022/04/07 12:12:20;;;;;;;;;;;;;;;;;;;;;
2022/04/07 12:14:46;;;;;;;;;;;18.00;65.50;;;;;;5127483;28;19911;-72
2022/04/07 12:17:11;;;;;;;;;;;18.70;65.00;;;;;;5131742;27;20006;-72
2022/04/07 12:19:47;;;;;;;;;;;19.10;63.00;;;;;;5131107;27;19958;-72
2022/04/07 12:22:13;;;;;;;;;;;19.40;62.60;;;;;;5131829;27;19936;-72
2022/04/07 12:24:39;;;;;;;;;;;19.60;60.20;;;;;;5130976;27;19918;-72
2022/04/07 12:27:08;;;;;;;;;;;19.30;58.50;;;;;;5130026;27;19917;-72
2022/04/07 12:29:34;;;;;;;;;;;18.80;58.40;;;;;;5129509;27;20238;-71
2022/04/07 12:32:06;;;;;;;;;;;18.70;60.10;;;;;;5132046;27;19919;-73
2022/04/07 12:34:32;;;;;;;;;;;18.90;59.10;;;;;;5131694;27;19958;-72
2022/04/07 12:36:59;;;;;;;;;;;18.30;58.70;;;;;;5132987;27;19929;-72
2022/04/07 12:39:32;;;;;;;;;;;18.20;61.60;;;;;;5151440;27;20002;-72
2022/04/07 12:42:13;;;;;;;;;;;18.40;60.20;;;;;;5150704;27;19967;-73
2022/04/07 12:44:39;;;;;;;;;;;18.20;58.30;;;;;;5152047;27;19950;-73
2022/04/07 12:47:11;;;;;;;;;;;17.60;58.20;;;;;;5149235;27;20395;-72
2022/04/07 12:49:40;;;;;;;;;;;17.00;57.40;;;;;;5151759;27;19923;-73
2022/04/07 12:52:08;;;;;;;;;;;16.50;57.00;;;;;;5130795;27;19915;-73
2022/04/07 12:54:34;;;;;;;;;;;16.40;58.10;;;;;;5151740;27;19907;-73
2022/04/07 12:57:13;;;;;;;;;;;16.60;58.30;;;;;;5132891;27;19989;-72
2022/04/07 12:59:40;;;;;;;;;;;16.50;57.30;;;;;;5151485;27;19911;-72
2022/04/07 13:02:06;;;;;;;;;;;16.30;57.10;;;;;;5148778;27;19907;-73
2022/04/07 13:05:03;;;;;;;;;;;16.10;57.20;;;;;;5151149;27;19956;-72
2022/04/07 13:07:29;;;;;;;;;;;15.90;57.20;;;;;;5105241;27;19911;-72
2022/04/07 13:09:55;;;;;;;;;;;15.70;57.60;;;;;;5151735;27;19922;-72
2022/04/07 13:12:21;;;;;;;;;;;16.10;59.40;;;;;;5132807;27;19919;-73
2022/04/07 13:14:46;;;;;;;;;;;16.90;59.90;;;;;;5151730;27;19922;-71
2022/04/07 13:17:12;;;;;;;;;;;17.10;58.70;;;;;;5151442;27;19992;-72
2022/04/07 13:19:38;;;;;;;;;;;16.80;58.20;;;;;;5150806;27;19911;-72
2022/04/07 13:22:04;;;;;;;;;;;16.40;57.80;;;;;;5150918;27;19915;-72
2022/04/07 13:24:30;;;;;;;;;;;16.00;57.70;;;;;;5150941;27;19907;-72
2022/04/07 13:26:55;;;;;;;;;;;15.60;58.40;;;;;;5149632;27;20025;-72
2022/04/07 13:29:23;;;;;;;;;;;15.80;59.90;;;;;;5150165;27;20302;-72
2022/04/07 13:31:49;;;;;;;;;;;16.30;60.50;;;;;;5132198;27;19915;-72
2022/04/07 13:34:14;;;;;;;;;;;16.80;61.00;;;;;;5151004;27;19990;-72
2022/04/07 13:36:40;;;;;;;;;;;17.50;59.90;;;;;;5150726;27;19939;-72
2022/04/07 13:39:06;;;;;;;;;;;17.70;58.40;;;;;;5132607;27;20421;-72
2022/04/07 13:41:34;;;;;;;;;;;17.50;57.80;;;;;;5150531;27;21336;-72
2022/04/07 13:43:59;;;;;;;;;;;17.10;57.80;;;;;;5151010;27;19914;-72
2022/04/07 13:46:25;;;;;;;;;;;16.70;58.00;;;;;;5150858;27;19908;-72
2022/04/07 13:48:51;;;;;;;;;;;16.50;58.30;;;;;;5150074;27;19941;-72
2022/04/07 13:51:17;;;;;;;;;;;16.50;58.30;;;;;;5150246;27;20369;-70
2022/04/07 13:53:42;;;;;;;;;;;16.60;58.60;;;;;;5150723;27;20310;-74
2022/04/07 13:56:08;;;;;;;;;;;16.60;58.60;;;;;;5151479;27;19924;-72
2022/04/07 13:58:37;;;;;;;;;;;16.80;58.50;;;;;;5150176;27;19907;-72
2022/04/07 14:01:05;;;;;;;;;;;16.80;58.10;;;;;;5149986;27;20003;-72
2022/04/07 14:03:31;;;;;;;;;;;16.80;58.10;;;;;;5149909;27;19993;-73
2022/04/07 14:05:59;;;;;;;;;;;16.70;57.90;;;;;;5154275;27;19984;-73
2022/04/07 14:08:28;;;;;;;;;;;16.70;58.10;;;;;;5131561;27;19914;-74
2022/04/07 14:10:54;;;;;;;;;;;16.70;57.70;;;;;;5150256;27;20009;-73
2022/04/07 14:13:23;;;;;;;;;;;16.90;58.40;;;;;;5131553;27;20365;-73
2022/04/07 14:15:52;;;;;;;;;;;17.00;57.50;;;;;;5150083;27;20337;-73
2022/04/07 14:18:18;;;;;;;;;;;16.80;57.60;;;;;;5149990;27;19907;-73
2022/04/07 14:20:45;;;;;;;;;;;16.60;57.60;;;;;;5150007;27;19929;-73
2022/04/07 14:23:11;;;;;;;;;;;16.30;57.40;;;;;;5149671;27;19992;-73
2022/04/07 14:25:40;;;;;;;;;;;16.30;58.40;;;;;;5149723;27;19921;-73